sensor_id;sensor_type;location;lat;lon;timestamp;P1;durP1;ratioP1;P2;durP2;ratioP2
11125;SDS011;5617;54.046;10.676;2022-07-21T00:00:28;22.30;;;18.27;;
11125;SDS011;5617;54.046;10.676;2022-07-21T00:02:36;21.77;;;17.60;;
11125;SDS011;5617;54.046;10.676;2022-07-21T00:04:45;21.57;;;17.70;;
11125;SDS011;5617;54.046;10.676;2022-07-21T00:06:53;19.47;;;17.33;;
11125;SDS011;5617;54.046;10.676;2022-07-21T00:09:00;20.13;;;17.33;;
11125;SDS011;5617;54.046;10.676;2022-07-21T00:11:09;21.30;;;17.33;;
11125;SDS011;5617;54.046;10.676;2022-07-21T00:13:16;20.07;;;17.50;;
11125;SDS011;5617;54.046;10.676;2022-07-21T00:15:25;21.97;;;18.10;;
11125;SDS011;5617;54.046;10.676;2022-07-21T00:17:33;20.17;;;17.27;;
11125;SDS011;5617;54.046;10.676;2022-07-21T00:19:41;19.53;;;17.40;;
11125;SDS011;5617;54.046;10.676;2022-07-21T00:21:50;21.00;;;17.10;;
11125;SDS011;5617;54.046;10.676;2022-07-21T00:23:58;20.27;;;17.60;;
11125;SDS011;5617;54.046;10.676;2022-07-21T00:26:05;20.97;;;17.50;;
11125;SDS011;5617;54.046;10.676;2022-07-21T00:28:13;19.57;;;16.60;;
11125;SDS011;5617;54.046;10.676;2022-07-21T00:30:20;20.90;;;17.00;;
11125;SDS011;5617;54.046;10.676;2022-07-21T00:32:28;20.70;;;16.73;;
11125;SDS011;5617;54.046;10.676;2022-07-21T00:34:36;20.47;;;17.47;;
11125;SDS011;5617;54.046;10.676;2022-07-21T00:36:43;20.97;;;17.00;;
11125;SDS011;5617;54.046;10.676;2022-07-21T00:38:52;18.93;;;16.90;;
11125;SDS011;5617;54.046;10.676;2022-07-21T00:41:00;19.20;;;17.23;;
11125;SDS011;5617;54.046;10.676;2022-07-21T00:43:07;19.30;;;17.00;;
11125;SDS011;5617;54.046;10.676;2022-07-21T00:45:15;19.83;;;16.60;;
11125;SDS011;5617;54.046;10.676;2022-07-21T00:47:23;18.40;;;16.43;;
11125;SDS011;5617;54.046;10.676;2022-07-21T00:49:32;19.63;;;16.83;;
11125;SDS011;5617;54.046;10.676;2022-07-21T00:51:42;21.43;;;17.63;;
11125;SDS011;5617;54.046;10.676;2022-07-21T00:53:50;19.57;;;17.47;;
11125;SDS011;5617;54.046;10.676;2022-07-21T00:55:59;19.23;;;17.00;;
11125;SDS011;5617;54.046;10.676;2022-07-21T00:58:07;21.00;;;17.23;;
11125;SDS011;5617;54.046;10.676;2022-07-21T01:00:17;20.60;;;17.07;;
11125;SDS011;5617;54.046;10.676;2022-07-21T01:02:26;19.03;;;16.50;;
11125;SDS011;5617;54.046;10.676;2022-07-21T01:04:34;19.13;;;15.73;;
11125;SDS011;5617;54.046;10.676;2022-07-21T01:06:41;17.90;;;16.10;;
11125;SDS011;5617;54.046;10.676;2022-07-21T01:08:49;18.13;;;16.10;;
11125;SDS011;5617;54.046;10.676;2022-07-21T01:10:57;20.10;;;15.93;;
11125;SDS011;5617;54.046;10.676;2022-07-21T01:13:06;20.33;;;16.23;;
11125;SDS011;5617;54.046;10.676;2022-07-21T01:15:14;18.17;;;15.80;;
11125;SDS011;5617;54.046;10.676;2022-07-21T01:17:23;18.63;;;16.67;;
11125;SDS011;5617;54.046;10.676;2022-07-21T01:19:31;19.13;;;16.13;;
11125;SDS011;5617;54.046;10.676;2022-07-21T01:21:41;18.83;;;16.77;;
11125;SDS011;5617;54.046;10.676;2022-07-21T01:23:50;20.80;;;16.23;;
11125;SDS011;5617;54.046;10.676;2022-07-21T01:25:58;18.67;;;15.37;;
11125;SDS011;5617;54.046;10.676;2022-07-21T01:28:05;18.13;;;15.87;;
11125;SDS011;5617;54.046;10.676;2022-07-21T01:30:13;19.90;;;15.53;;
11125;SDS011;5617;54.046;10.676;2022-07-21T01:32:23;17.23;;;15.53;;
11125;SDS011;5617;54.046;10.676;2022-07-21T01:34:30;21.40;;;15.83;;
11125;SDS011;5617;54.046;10.676;2022-07-21T01:36:38;17.50;;;15.70;;
11125;SDS011;5617;54.046;10.676;2022-07-21T01:38:47;18.13;;;15.10;;
11125;SDS011;5617;54.046;10.676;2022-07-21T01:41:13;18.23;;;15.37;;
11125;SDS011;5617;54.046;10.676;2022-07-21T01:43:35;21.57;;;14.47;;
11125;SDS011;5617;54.046;10.676;2022-07-21T01:45:43;19.57;;;15.43;;
11125;SDS011;5617;54.046;10.676;2022-07-21T01:47:51;17.53;;;15.17;;
11125;SDS011;5617;54.046;10.676;2022-07-21T01:49:58;20.43;;;15.23;;
11125;SDS011;5617;54.046;10.676;2022-07-21T01:52:06;19.33;;;15.37;;
11125;SDS011;5617;54.046;10.676;2022-07-21T01:54:15;19.33;;;14.60;;
11125;SDS011;5617;54.046;10.676;2022-07-21T01:56:24;19.00;;;14.87;;
11125;SDS011;5617;54.046;10.676;2022-07-21T01:58:33;18.30;;;14.57;;
11125;SDS011;5617;54.046;10.676;2022-07-21T02:00:41;19.70;;;15.70;;
11125;SDS011;5617;54.046;10.676;2022-07-21T02:02:48;16.73;;;14.60;;
11125;SDS011;5617;54.046;10.676;2022-07-21T02:04:56;16.70;;;14.73;;
11125;SDS011;5617;54.046;10.676;2022-07-21T02:07:03;19.77;;;15.10;;
11125;SDS011;5617;54.046;10.676;2022-07-21T02:09:11;18.53;;;15.17;;
11125;SDS011;5617;54.046;10.676;2022-07-21T02:11:21;18.80;;;15.27;;
11125;SDS011;5617;54.046;10.676;2022-07-21T02:13:29;19.10;;;15.50;;
11125;SDS011;5617;54.046;10.676;2022-07-21T02:15:36;16.43;;;14.67;;
11125;SDS011;5617;54.046;10.676;2022-07-21T02:17:44;19.17;;;14.90;;
11125;SDS011;5617;54.046;10.676;2022-07-21T02:19:51;18.70;;;15.30;;
11125;SDS011;5617;54.046;10.676;2022-07-21T02:21:59;21.67;;;15.67;;
11125;SDS011;5617;54.046;10.676;2022-07-21T02:24:07;22.67;;;14.53;;
11125;SDS011;5617;54.046;10.676;2022-07-21T02:26:14;18.83;;;15.27;;
11125;SDS011;5617;54.046;10.676;2022-07-21T02:28:24;17.90;;;14.37;;
11125;SDS011;5617;54.046;10.676;2022-07-21T02:30:32;17.87;;;14.33;;
11125;SDS011;5617;54.046;10.676;2022-07-21T02:32:40;17.47;;;14.93;;
11125;SDS011;5617;54.046;10.676;2022-07-21T02:34:47;18.07;;;14.67;;
11125;SDS011;5617;54.046;10.676;2022-07-21T02:36:54;18.63;;;14.80;;
11125;SDS011;5617;54.046;10.676;2022-07-21T02:39:02;20.33;;;15.10;;
11125;SDS011;5617;54.046;10.676;2022-07-21T02:41:10;20.33;;;15.43;;
11125;SDS011;5617;54.046;10.676;2022-07-21T02:43:18;16.90;;;14.53;;
11125;SDS011;5617;54.046;10.676;2022-07-21T02:45:26;17.83;;;15.13;;
11125;SDS011;5617;54.046;10.676;2022-07-21T02:47:46;17.63;;;14.50;;
11125;SDS011;5617;54.046;10.676;2022-07-21T02:49:55;17.70;;;14.30;;
11125;SDS011;5617;54.046;10.676;2022-07-21T02:52:03;19.23;;;15.63;;
11125;SDS011;5617;54.046;10.676;2022-07-21T02:54:11;18.90;;;15.60;;
11125;SDS011;5617;54.046;10.676;2022-07-21T02:56:19;16.57;;;14.77;;
11125;SDS011;5617;54.046;10.676;2022-07-21T02:58:27;19.87;;;14.83;;
11125;SDS011;5617;54.046;10.676;2022-07-21T03:00:39;17.57;;;14.47;;
11125;SDS011;5617;54.046;10.676;2022-07-21T03:02:47;17.20;;;15.07;;
11125;SDS011;5617;54.046;10.676;2022-07-21T03:04:55;20.67;;;14.97;;
11125;SDS011;5617;54.046;10.676;2022-07-21T03:07:04;19.37;;;14.47;;
11125;SDS011;5617;54.046;10.676;2022-07-21T03:09:13;17.47;;;14.43;;
11125;SDS011;5617;54.046;10.676;2022-07-21T03:11:21;17.83;;;13.73;;
11125;SDS011;5617;54.046;10.676;2022-07-21T03:13:28;16.87;;;14.27;;
11125;SDS011;5617;54.046;10.676;2022-07-21T03:15:38;16.90;;;14.70;;
11125;SDS011;5617;54.046;10.676;2022-07-21T03:17:46;14.80;;;13.33;;
11125;SDS011;5617;54.046;10.676;2022-07-21T03:19:53;15.93;;;14.10;;
11125;SDS011;5617;54.046;10.676;2022-07-21T03:22:05;16.80;;;13.47;;
11125;SDS011;5617;54.046;10.676;2022-07-21T03:24:13;19.03;;;14.73;;
11125;SDS011;5617;54.046;10.676;2022-07-21T03:26:21;16.57;;;14.27;;
11125;SDS011;5617;54.046;10.676;2022-07-21T03:28:29;14.83;;;13.20;;
11125;SDS011;5617;54.046;10.676;2022-07-21T03:30:40;17.20;;;13.17;;
11125;SDS011;5617;54.046;10.676;2022-07-21T03:32:48;16.43;;;13.53;;
11125;SDS011;5617;54.046;10.676;2022-07-21T03:35:00;15.77;;;13.03;;
11125;SDS011;5617;54.046;10.676;2022-07-21T03:37:23;15.47;;;13.37;;
11125;SDS011;5617;54.046;10.676;2022-07-21T03:39:32;17.07;;;12.97;;
11125;SDS011;5617;54.046;10.676;2022-07-21T03:41:40;16.27;;;13.37;;
11125;SDS011;5617;54.046;10.676;2022-07-21T03:43:47;15.90;;;12.67;;
11125;SDS011;5617;54.046;10.676;2022-07-21T03:45:56;15.40;;;12.90;;
11125;SDS011;5617;54.046;10.676;2022-07-21T03:48:04;15.13;;;13.10;;
11125;SDS011;5617;54.046;10.676;2022-07-21T03:50:13;14.70;;;13.17;;
11125;SDS011;5617;54.046;10.676;2022-07-21T03:52:23;17.10;;;13.13;;
11125;SDS011;5617;54.046;10.676;2022-07-21T03:54:30;18.60;;;13.30;;
11125;SDS011;5617;54.046;10.676;2022-07-21T03:56:38;17.17;;;13.33;;
11125;SDS011;5617;54.046;10.676;2022-07-21T03:58:45;16.27;;;13.47;;
11125;SDS011;5617;54.046;10.676;2022-07-21T04:00:53;15.07;;;13.37;;
11125;SDS011;5617;54.046;10.676;2022-07-21T04:03:01;15.77;;;13.07;;
11125;SDS011;5617;54.046;10.676;2022-07-21T04:05:10;15.30;;;13.27;;
11125;SDS011;5617;54.046;10.676;2022-07-21T04:07:18;16.97;;;14.30;;
11125;SDS011;5617;54.046;10.676;2022-07-21T04:09:26;16.70;;;13.57;;
11125;SDS011;5617;54.046;10.676;2022-07-21T04:11:33;15.20;;;13.53;;
11125;SDS011;5617;54.046;10.676;2022-07-21T04:13:41;14.60;;;12.63;;
11125;SDS011;5617;54.046;10.676;2022-07-21T04:15:49;13.43;;;12.03;;
11125;SDS011;5617;54.046;10.676;2022-07-21T04:17:58;14.83;;;13.03;;
11125;SDS011;5617;54.046;10.676;2022-07-21T04:20:08;16.97;;;14.00;;
11125;SDS011;5617;54.046;10.676;2022-07-21T04:22:18;15.57;;;13.33;;
11125;SDS011;5617;54.046;10.676;2022-07-21T04:24:25;17.93;;;13.00;;
11125;SDS011;5617;54.046;10.676;2022-07-21T04:26:33;14.90;;;13.37;;
11125;SDS011;5617;54.046;10.676;2022-07-21T04:28:40;16.47;;;13.57;;
11125;SDS011;5617;54.046;10.676;2022-07-21T04:30:48;22.30;;;13.47;;
11125;SDS011;5617;54.046;10.676;2022-07-21T04:32:55;16.87;;;13.53;;
11125;SDS011;5617;54.046;10.676;2022-07-21T04:35:03;15.13;;;13.47;;
11125;SDS011;5617;54.046;10.676;2022-07-21T04:37:14;16.13;;;13.37;;
11125;SDS011;5617;54.046;10.676;2022-07-21T04:39:21;15.13;;;13.00;;
11125;SDS011;5617;54.046;10.676;2022-07-21T04:41:29;16.93;;;12.57;;
11125;SDS011;5617;54.046;10.676;2022-07-21T04:43:36;13.23;;;11.93;;
11125;SDS011;5617;54.046;10.676;2022-07-21T04:45:44;16.50;;;12.10;;
11125;SDS011;5617;54.046;10.676;2022-07-21T04:47:52;15.23;;;11.47;;
11125;SDS011;5617;54.046;10.676;2022-07-21T04:50:01;14.93;;;11.83;;
11125;SDS011;5617;54.046;10.676;2022-07-21T04:52:09;13.47;;;10.87;;
11125;SDS011;5617;54.046;10.676;2022-07-21T04:54:18;12.23;;;10.97;;
11125;SDS011;5617;54.046;10.676;2022-07-21T04:56:26;13.87;;;11.47;;
11125;SDS011;5617;54.046;10.676;2022-07-21T04:58:33;13.10;;;11.60;;
11125;SDS011;5617;54.046;10.676;2022-07-21T05:00:41;14.73;;;11.23;;
11125;SDS011;5617;54.046;10.676;2022-07-21T05:02:50;15.80;;;11.70;;
11125;SDS011;5617;54.046;10.676;2022-07-21T05:04:58;14.87;;;11.33;;
11125;SDS011;5617;54.046;10.676;2022-07-21T05:07:07;15.37;;;11.47;;
11125;SDS011;5617;54.046;10.676;2022-07-21T05:09:15;14.53;;;11.70;;
11125;SDS011;5617;54.046;10.676;2022-07-21T05:11:24;15.93;;;10.67;;
11125;SDS011;5617;54.046;10.676;2022-07-21T05:13:31;13.27;;;10.83;;
11125;SDS011;5617;54.046;10.676;2022-07-21T05:15:39;17.27;;;10.43;;
11125;SDS011;5617;54.046;10.676;2022-07-21T05:17:47;13.13;;;10.50;;
11125;SDS011;5617;54.046;10.676;2022-07-21T05:19:54;14.57;;;10.83;;
11125;SDS011;5617;54.046;10.676;2022-07-21T05:22:02;15.80;;;11.13;;
11125;SDS011;5617;54.046;10.676;2022-07-21T05:24:09;16.77;;;11.07;;
11125;SDS011;5617;54.046;10.676;2022-07-21T05:26:17;12.00;;;9.33;;
11125;SDS011;5617;54.046;10.676;2022-07-21T05:28:25;13.57;;;10.97;;
11125;SDS011;5617;54.046;10.676;2022-07-21T05:30:34;16.87;;;11.53;;
11125;SDS011;5617;54.046;10.676;2022-07-21T05:32:42;13.37;;;10.07;;
11125;SDS011;5617;54.046;10.676;2022-07-21T05:34:50;15.87;;;10.93;;
11125;SDS011;5617;54.046;10.676;2022-07-21T05:36:58;13.77;;;11.07;;
11125;SDS011;5617;54.046;10.676;2022-07-21T05:39:05;16.80;;;11.10;;
11125;SDS011;5617;54.046;10.676;2022-07-21T05:41:13;16.30;;;11.13;;
11125;SDS011;5617;54.046;10.676;2022-07-21T05:43:20;14.50;;;10.80;;
11125;SDS011;5617;54.046;10.676;2022-07-21T05:45:29;14.90;;;10.17;;
11125;SDS011;5617;54.046;10.676;2022-07-21T05:47:37;15.77;;;10.87;;
11125;SDS011;5617;54.046;10.676;2022-07-21T05:49:45;16.33;;;10.10;;
11125;SDS011;5617;54.046;10.676;2022-07-21T05:51:54;13.93;;;9.20;;
11125;SDS011;5617;54.046;10.676;2022-07-21T05:54:01;12.30;;;8.90;;
11125;SDS011;5617;54.046;10.676;2022-07-21T05:56:09;15.93;;;10.43;;
11125;SDS011;5617;54.046;10.676;2022-07-21T05:58:16;15.40;;;9.50;;
11125;SDS011;5617;54.046;10.676;2022-07-21T06:00:31;16.00;;;9.43;;
11125;SDS011;5617;54.046;10.676;2022-07-21T06:02:39;15.53;;;9.67;;
11125;SDS011;5617;54.046;10.676;2022-07-21T06:04:47;13.53;;;9.10;;
11125;SDS011;5617;54.046;10.676;2022-07-21T06:06:54;13.87;;;8.47;;
11125;SDS011;5617;54.046;10.676;2022-07-21T06:09:02;15.43;;;8.93;;
11125;SDS011;5617;54.046;10.676;2022-07-21T06:11:11;14.47;;;9.07;;
11125;SDS011;5617;54.046;10.676;2022-07-21T06:13:19;11.53;;;7.53;;
11125;SDS011;5617;54.046;10.676;2022-07-21T06:15:27;12.13;;;7.83;;
11125;SDS011;5617;54.046;10.676;2022-07-21T06:17:39;16.50;;;8.20;;
11125;SDS011;5617;54.046;10.676;2022-07-21T06:19:47;12.37;;;6.97;;
11125;SDS011;5617;54.046;10.676;2022-07-21T06:21:55;12.57;;;7.30;;
11125;SDS011;5617;54.046;10.676;2022-07-21T06:24:03;10.07;;;7.03;;
11125;SDS011;5617;54.046;10.676;2022-07-21T06:26:10;12.33;;;6.87;;
11125;SDS011;5617;54.046;10.676;2022-07-21T06:28:18;11.63;;;6.97;;
11125;SDS011;5617;54.046;10.676;2022-07-21T06:30:26;13.17;;;6.70;;
11125;SDS011;5617;54.046;10.676;2022-07-21T06:32:34;11.17;;;7.00;;
11125;SDS011;5617;54.046;10.676;2022-07-21T06:34:45;11.10;;;7.20;;
11125;SDS011;5617;54.046;10.676;2022-07-21T06:36:52;10.97;;;7.37;;
11125;SDS011;5617;54.046;10.676;2022-07-21T06:39:00;12.77;;;6.90;;
11125;SDS011;5617;54.046;10.676;2022-07-21T06:41:08;9.10;;;7.00;;
11125;SDS011;5617;54.046;10.676;2022-07-21T06:43:16;12.13;;;7.00;;
11125;SDS011;5617;54.046;10.676;2022-07-21T06:45:23;11.57;;;6.97;;
11125;SDS011;5617;54.046;10.676;2022-07-21T06:47:32;10.53;;;6.93;;
11125;SDS011;5617;54.046;10.676;2022-07-21T06:49:39;11.47;;;7.60;;
11125;SDS011;5617;54.046;10.676;2022-07-21T06:51:48;9.87;;;7.83;;
11125;SDS011;5617;54.046;10.676;2022-07-21T06:53:56;10.07;;;7.53;;
11125;SDS011;5617;54.046;10.676;2022-07-21T06:56:04;10.37;;;7.30;;
11125;SDS011;5617;54.046;10.676;2022-07-21T06:58:12;13.03;;;7.70;;
11125;SDS011;5617;54.046;10.676;2022-07-21T07:00:21;10.27;;;8.63;;
11125;SDS011;5617;54.046;10.676;2022-07-21T07:02:32;11.47;;;8.23;;
11125;SDS011;5617;54.046;10.676;2022-07-21T07:04:47;9.43;;;7.87;;
11125;SDS011;5617;54.046;10.676;2022-07-21T07:06:57;9.60;;;8.17;;
11125;SDS011;5617;54.046;10.676;2022-07-21T07:09:05;11.17;;;8.50;;
11125;SDS011;5617;54.046;10.676;2022-07-21T07:11:12;9.53;;;7.87;;
11125;SDS011;5617;54.046;10.676;2022-07-21T07:13:20;10.23;;;7.80;;
11125;SDS011;5617;54.046;10.676;2022-07-21T07:15:28;11.47;;;7.60;;
11125;SDS011;5617;54.046;10.676;2022-07-21T07:17:36;8.77;;;7.53;;
11125;SDS011;5617;54.046;10.676;2022-07-21T07:19:44;9.40;;;7.40;;
11125;SDS011;5617;54.046;10.676;2022-07-21T07:21:55;8.20;;;7.00;;
11125;SDS011;5617;54.046;10.676;2022-07-21T07:24:04;9.77;;;7.30;;
11125;SDS011;5617;54.046;10.676;2022-07-21T07:26:12;8.57;;;6.87;;
11125;SDS011;5617;54.046;10.676;2022-07-21T07:28:20;7.97;;;6.40;;
11125;SDS011;5617;54.046;10.676;2022-07-21T07:30:27;8.57;;;6.30;;
11125;SDS011;5617;54.046;10.676;2022-07-21T07:32:35;10.17;;;6.73;;
11125;SDS011;5617;54.046;10.676;2022-07-21T07:34:42;10.83;;;6.87;;
11125;SDS011;5617;54.046;10.676;2022-07-21T07:36:50;8.97;;;6.40;;
11125;SDS011;5617;54.046;10.676;2022-07-21T07:38:59;9.60;;;6.30;;
11125;SDS011;5617;54.046;10.676;2022-07-21T07:41:09;10.53;;;6.30;;
11125;SDS011;5617;54.046;10.676;2022-07-21T07:43:17;9.70;;;6.23;;
11125;SDS011;5617;54.046;10.676;2022-07-21T07:45:26;8.20;;;6.30;;
11125;SDS011;5617;54.046;10.676;2022-07-21T07:47:34;8.47;;;5.90;;
11125;SDS011;5617;54.046;10.676;2022-07-21T07:49:42;8.77;;;5.70;;
11125;SDS011;5617;54.046;10.676;2022-07-21T07:51:49;8.40;;;5.73;;
11125;SDS011;5617;54.046;10.676;2022-07-21T07:53:57;7.97;;;5.73;;
11125;SDS011;5617;54.046;10.676;2022-07-21T07:56:07;7.17;;;5.40;;
11125;SDS011;5617;54.046;10.676;2022-07-21T07:58:16;7.23;;;5.53;;
11125;SDS011;5617;54.046;10.676;2022-07-21T08:00:24;6.87;;;5.40;;
11125;SDS011;5617;54.046;10.676;2022-07-21T08:02:32;7.70;;;5.50;;
11125;SDS011;5617;54.046;10.676;2022-07-21T08:04:39;8.70;;;5.53;;
11125;SDS011;5617;54.046;10.676;2022-07-21T08:06:49;6.73;;;5.50;;
11125;SDS011;5617;54.046;10.676;2022-07-21T08:08:57;6.93;;;5.23;;
11125;SDS011;5617;54.046;10.676;2022-07-21T08:11:04;7.50;;;5.37;;
11125;SDS011;5617;54.046;10.676;2022-07-21T08:13:14;8.00;;;5.53;;
11125;SDS011;5617;54.046;10.676;2022-07-21T08:15:23;7.43;;;5.70;;
11125;SDS011;5617;54.046;10.676;2022-07-21T08:17:30;6.47;;;5.67;;
11125;SDS011;5617;54.046;10.676;2022-07-21T08:19:38;6.77;;;5.67;;
11125;SDS011;5617;54.046;10.676;2022-07-21T08:21:46;8.53;;;6.00;;
11125;SDS011;5617;54.046;10.676;2022-07-21T08:23:54;9.03;;;5.80;;
11125;SDS011;5617;54.046;10.676;2022-07-21T08:26:01;8.23;;;5.40;;
11125;SDS011;5617;54.046;10.676;2022-07-21T08:28:09;8.60;;;5.83;;
11125;SDS011;5617;54.046;10.676;2022-07-21T08:30:19;7.40;;;5.50;;
11125;SDS011;5617;54.046;10.676;2022-07-21T08:32:27;6.70;;;4.73;;
11125;SDS011;5617;54.046;10.676;2022-07-21T08:34:35;11.10;;;5.63;;
11125;SDS011;5617;54.046;10.676;2022-07-21T08:36:42;9.20;;;5.73;;
11125;SDS011;5617;54.046;10.676;2022-07-21T08:38:50;9.10;;;5.73;;
11125;SDS011;5617;54.046;10.676;2022-07-21T08:40:57;9.00;;;6.00;;
11125;SDS011;5617;54.046;10.676;2022-07-21T08:43:05;10.17;;;6.00;;
11125;SDS011;5617;54.046;10.676;2022-07-21T08:45:14;8.67;;;5.97;;
11125;SDS011;5617;54.046;10.676;2022-07-21T08:47:23;8.90;;;5.50;;
11125;SDS011;5617;54.046;10.676;2022-07-21T08:49:32;6.37;;;5.73;;
11125;SDS011;5617;54.046;10.676;2022-07-21T08:51:41;8.20;;;5.63;;
11125;SDS011;5617;54.046;10.676;2022-07-21T08:53:48;8.67;;;5.33;;
11125;SDS011;5617;54.046;10.676;2022-07-21T08:55:56;7.87;;;5.00;;
11125;SDS011;5617;54.046;10.676;2022-07-21T08:58:03;7.03;;;4.97;;
11125;SDS011;5617;54.046;10.676;2022-07-21T09:00:14;6.07;;;4.90;;
11125;SDS011;5617;54.046;10.676;2022-07-21T09:02:27;5.63;;;4.87;;
11125;SDS011;5617;54.046;10.676;2022-07-21T09:04:35;5.57;;;4.30;;
11125;SDS011;5617;54.046;10.676;2022-07-21T09:06:48;6.60;;;4.07;;
11125;SDS011;5617;54.046;10.676;2022-07-21T09:08:58;5.00;;;3.97;;
11125;SDS011;5617;54.046;10.676;2022-07-21T09:11:09;6.90;;;3.93;;
11125;SDS011;5617;54.046;10.676;2022-07-21T09:13:20;5.30;;;3.90;;
11125;SDS011;5617;54.046;10.676;2022-07-21T09:15:28;7.60;;;3.63;;
11125;SDS011;5617;54.046;10.676;2022-07-21T09:17:40;6.03;;;4.33;;
11125;SDS011;5617;54.046;10.676;2022-07-21T09:19:47;7.03;;;4.43;;
11125;SDS011;5617;54.046;10.676;2022-07-21T09:21:56;6.17;;;4.03;;
11125;SDS011;5617;54.046;10.676;2022-07-21T09:24:18;5.73;;;3.90;;
11125;SDS011;5617;54.046;10.676;2022-07-21T09:26:31;4.90;;;4.10;;
11125;SDS011;5617;54.046;10.676;2022-07-21T09:28:40;5.90;;;3.73;;
11125;SDS011;5617;54.046;10.676;2022-07-21T09:30:50;4.67;;;3.73;;
11125;SDS011;5617;54.046;10.676;2022-07-21T09:33:01;6.83;;;4.00;;
11125;SDS011;5617;54.046;10.676;2022-07-21T09:35:26;6.47;;;3.90;;
11125;SDS011;5617;54.046;10.676;2022-07-21T09:37:34;8.27;;;3.57;;
11125;SDS011;5617;54.046;10.676;2022-07-21T09:39:44;6.37;;;4.03;;
11125;SDS011;5617;54.046;10.676;2022-07-21T09:41:53;6.27;;;3.90;;
11125;SDS011;5617;54.046;10.676;2022-07-21T09:44:23;5.17;;;3.63;;
11125;SDS011;5617;54.046;10.676;2022-07-21T09:46:37;5.60;;;3.60;;
11125;SDS011;5617;54.046;10.676;2022-07-21T09:48:46;4.57;;;3.40;;
11125;SDS011;5617;54.046;10.676;2022-07-21T09:50:55;6.77;;;3.57;;
11125;SDS011;5617;54.046;10.676;2022-07-21T09:53:03;5.87;;;3.27;;
11125;SDS011;5617;54.046;10.676;2022-07-21T09:55:12;6.40;;;3.27;;
11125;SDS011;5617;54.046;10.676;2022-07-21T09:57:21;6.90;;;3.03;;
11125;SDS011;5617;54.046;10.676;2022-07-21T09:59:29;6.37;;;3.40;;
11125;SDS011;5617;54.046;10.676;2022-07-21T10:01:37;5.63;;;3.00;;
11125;SDS011;5617;54.046;10.676;2022-07-21T10:03:46;5.20;;;2.93;;
11125;SDS011;5617;54.046;10.676;2022-07-21T10:05:55;7.77;;;2.93;;
11125;SDS011;5617;54.046;10.676;2022-07-21T10:08:03;3.70;;;2.30;;
11125;SDS011;5617;54.046;10.676;2022-07-21T10:10:12;4.30;;;2.50;;
11125;SDS011;5617;54.046;10.676;2022-07-21T10:12:20;4.63;;;2.80;;
11125;SDS011;5617;54.046;10.676;2022-07-21T10:14:28;4.90;;;2.70;;
11125;SDS011;5617;54.046;10.676;2022-07-21T10:16:36;4.57;;;2.67;;
11125;SDS011;5617;54.046;10.676;2022-07-21T10:18:47;3.73;;;2.47;;
11125;SDS011;5617;54.046;10.676;2022-07-21T10:21:15;3.70;;;2.70;;
11125;SDS011;5617;54.046;10.676;2022-07-21T10:23:34;7.03;;;2.50;;
11125;SDS011;5617;54.046;10.676;2022-07-21T10:25:47;3.60;;;2.00;;
11125;SDS011;5617;54.046;10.676;2022-07-21T10:28:14;3.67;;;2.27;;
11125;SDS011;5617;54.046;10.676;2022-07-21T10:30:36;6.23;;;2.30;;
11125;SDS011;5617;54.046;10.676;2022-07-21T10:32:48;5.87;;;2.50;;
11125;SDS011;5617;54.046;10.676;2022-07-21T10:34:59;5.20;;;2.50;;
11125;SDS011;5617;54.046;10.676;2022-07-21T10:37:11;3.93;;;2.30;;
11125;SDS011;5617;54.046;10.676;2022-07-21T10:39:46;3.87;;;2.40;;
11125;SDS011;5617;54.046;10.676;2022-07-21T10:41:55;3.27;;;2.10;;
11125;SDS011;5617;54.046;10.676;2022-07-21T10:46:58;3.77;;;2.00;;
11125;SDS011;5617;54.046;10.676;2022-07-21T10:49:09;2.10;;;1.80;;
11125;SDS011;5617;54.046;10.676;2022-07-21T10:51:18;2.67;;;1.77;;
11125;SDS011;5617;54.046;10.676;2022-07-21T10:53:26;1.90;;;1.33;;
11125;SDS011;5617;54.046;10.676;2022-07-21T10:55:35;3.27;;;1.60;;
11125;SDS011;5617;54.046;10.676;2022-07-21T10:57:43;3.47;;;1.70;;
11125;SDS011;5617;54.046;10.676;2022-07-21T11:02:29;4.63;;;1.83;;
11125;SDS011;5617;54.046;10.676;2022-07-21T11:04:50;3.13;;;1.63;;
11125;SDS011;5617;54.046;10.676;2022-07-21T11:07:12;2.73;;;1.87;;
11125;SDS011;5617;54.046;10.676;2022-07-21T11:09:20;3.10;;;2.00;;
11125;SDS011;5617;54.046;10.676;2022-07-21T11:11:28;3.47;;;2.13;;
11125;SDS011;5617;54.046;10.676;2022-07-21T11:16:04;3.03;;;1.90;;
11125;SDS011;5617;54.046;10.676;2022-07-21T11:18:15;2.40;;;2.00;;
11125;SDS011;5617;54.046;10.676;2022-07-21T11:20:24;2.10;;;1.90;;
11125;SDS011;5617;54.046;10.676;2022-07-21T11:22:33;2.30;;;1.80;;
11125;SDS011;5617;54.046;10.676;2022-07-21T11:24:42;2.47;;;2.27;;
11125;SDS011;5617;54.046;10.676;2022-07-21T11:26:53;2.17;;;1.90;;
11125;SDS011;5617;54.046;10.676;2022-07-21T11:29:05;3.37;;;2.40;;
11125;SDS011;5617;54.046;10.676;2022-07-21T11:31:15;3.63;;;2.20;;
11125;SDS011;5617;54.046;10.676;2022-07-21T11:33:26;2.30;;;2.10;;
11125;SDS011;5617;54.046;10.676;2022-07-21T11:35:37;3.87;;;2.37;;
11125;SDS011;5617;54.046;10.676;2022-07-21T11:37:46;2.77;;;2.30;;
11125;SDS011;5617;54.046;10.676;2022-07-21T11:39:54;3.13;;;2.60;;
11125;SDS011;5617;54.046;10.676;2022-07-21T11:42:02;4.30;;;2.40;;
11125;SDS011;5617;54.046;10.676;2022-07-21T11:44:11;3.33;;;2.60;;
11125;SDS011;5617;54.046;10.676;2022-07-21T11:46:29;4.40;;;3.10;;
11125;SDS011;5617;54.046;10.676;2022-07-21T11:49:01;6.27;;;3.40;;
11125;SDS011;5617;54.046;10.676;2022-07-21T11:51:10;3.93;;;3.07;;
11125;SDS011;5617;54.046;10.676;2022-07-21T11:53:19;4.27;;;3.43;;
11125;SDS011;5617;54.046;10.676;2022-07-21T11:55:27;4.67;;;3.70;;
11125;SDS011;5617;54.046;10.676;2022-07-21T11:57:36;4.87;;;4.00;;
11125;SDS011;5617;54.046;10.676;2022-07-21T11:59:47;5.20;;;3.97;;
11125;SDS011;5617;54.046;10.676;2022-07-21T12:01:57;4.30;;;3.93;;
11125;SDS011;5617;54.046;10.676;2022-07-21T12:04:07;6.87;;;5.20;;
11125;SDS011;5617;54.046;10.676;2022-07-21T12:06:14;5.90;;;4.93;;
11125;SDS011;5617;54.046;10.676;2022-07-21T12:08:24;7.00;;;6.10;;
11125;SDS011;5617;54.046;10.676;2022-07-21T12:10:32;7.07;;;6.37;;
11125;SDS011;5617;54.046;10.676;2022-07-21T12:12:42;7.60;;;6.80;;
11125;SDS011;5617;54.046;10.676;2022-07-21T12:14:51;7.40;;;6.70;;
11125;SDS011;5617;54.046;10.676;2022-07-21T12:16:59;6.80;;;6.17;;
11125;SDS011;5617;54.046;10.676;2022-07-21T12:19:10;7.67;;;6.53;;
11125;SDS011;5617;54.046;10.676;2022-07-21T12:21:19;7.87;;;5.87;;
11125;SDS011;5617;54.046;10.676;2022-07-21T12:23:28;6.27;;;5.67;;
11125;SDS011;5617;54.046;10.676;2022-07-21T12:25:38;6.33;;;5.83;;
11125;SDS011;5617;54.046;10.676;2022-07-21T12:27:46;6.50;;;5.90;;
11125;SDS011;5617;54.046;10.676;2022-07-21T12:29:55;5.23;;;4.73;;
11125;SDS011;5617;54.046;10.676;2022-07-21T12:32:09;5.23;;;4.50;;
11125;SDS011;5617;54.046;10.676;2022-07-21T12:34:16;4.30;;;3.90;;
11125;SDS011;5617;54.046;10.676;2022-07-21T12:36:24;5.80;;;4.53;;
11125;SDS011;5617;54.046;10.676;2022-07-21T12:38:36;4.93;;;4.43;;
11125;SDS011;5617;54.046;10.676;2022-07-21T12:40:46;6.33;;;4.80;;
11125;SDS011;5617;54.046;10.676;2022-07-21T12:43:03;5.00;;;4.40;;
11125;SDS011;5617;54.046;10.676;2022-07-21T12:45:16;5.77;;;5.27;;
11125;SDS011;5617;54.046;10.676;2022-07-21T12:47:25;5.20;;;4.70;;
11125;SDS011;5617;54.046;10.676;2022-07-21T12:49:48;6.23;;;4.60;;
11125;SDS011;5617;54.046;10.676;2022-07-21T12:52:00;7.43;;;5.90;;
11125;SDS011;5617;54.046;10.676;2022-07-21T12:54:09;6.30;;;5.20;;